Time;durP1;ratioP1;P1;durP2;ratioP2;P2;SDS_P1;SDS_P2;PMS_P1;PMS_P2;Temp;Humidity;BMP_temperature;BMP_pressure;BME280_temperature;BME280_humidity;BME280_pressure;Samples;Min_cycle;Max_cycle;Signal;HPM_P1;HPM_P2
2022/11/25 00:01:10;;;;;;;13.23;3.90;;;12.50;99.90;;;;;;5094111;28;20175;-71
2022/11/25 00:03:36;;;;;;;14.17;3.73;;;12.60;99.90;;;;;;5093790;28;20164;-71
2022/11/25 00:06:21;;;;;;;15.20;3.47;;;12.50;99.90;;;;;;5093989;28;20269;-71
2022/11/25 00:08:53;;;;;;;12.40;3.87;;;12.50;99.90;;;;;;5094070;28;20681;-71
2022/11/25 00:11:18;;;;;;;13.97;3.63;;;12.50;99.90;;;;;;5094108;28;20175;-71
2022/11/25 00:13:45;;;;;;;17.27;3.80;;;12.50;99.90;;;;;;5093893;28;20211;-71
2022/11/25 00:16:13;;;;;;;14.50;3.20;;;12.40;99.90;;;;;;5093957;28;20639;-70
2022/11/25 00:18:42;;;;;;;12.07;3.57;;;12.40;99.90;;;;;;5093668;28;20168;-69
2022/11/25 00:21:10;;;;;;;13.07;3.57;;;12.30;99.90;;;;;;5093839;28;20571;-70
2022/11/25 00:23:36;;;;;;;15.63;3.97;;;12.20;99.90;;;;;;5075598;28;20516;-70
2022/11/25 00:26:15;;;;;;;13.93;3.67;;;12.20;99.90;;;;;;5093071;28;20210;-70
2022/11/25 00:28:46;;;;;;;17.00;3.80;;;12.00;99.90;;;;;;5093766;28;20639;-70
2022/11/25 00:31:19;;;;;;;15.97;4.07;;;12.00;99.90;;;;;;5093398;28;20254;-71
2022/11/25 00:33:45;;;;;;;15.17;3.83;;;11.90;99.90;;;;;;5093206;28;20739;-70
2022/11/25 00:36:22;;;;;;;17.53;4.27;;;11.70;99.90;;;;;;5093844;28;20172;-70
2022/11/25 00:38:53;;;;;;;12.57;3.47;;;11.70;99.90;;;;;;5093693;28;20706;-71
2022/11/25 00:46:57;;;;;;;9.77;2.40;;;10.90;99.90;;;;;;5093323;28;20189;-70
2022/11/25 00:49:23;;;;;;;4.00;1.50;;;10.80;99.90;;;;;;5075355;28;20176;-70
2022/11/25 00:51:51;;;;;;;4.07;1.60;;;10.70;99.90;;;;;;5093324;28;20184;-70
2022/11/25 00:54:17;;;;;;;8.23;1.83;;;10.50;99.90;;;;;;5093318;28;20295;-70
2022/11/25 00:56:43;;;;;;;5.90;1.60;;;10.40;99.90;;;;;;5093581;28;20583;-70
2022/11/25 00:59:08;;;;;;;4.70;1.60;;;10.30;99.90;;;;;;5093388;28;20221;-70
2022/11/25 01:01:34;;;;;;;3.90;1.33;;;10.20;99.90;;;;;;5092953;28;20188;-69
2022/11/25 01:04:00;;;;;;;2.63;1.00;;;10.20;99.90;;;;;;5093306;28;20180;-69
2022/11/25 01:06:29;;;;;;;2.87;1.20;;;10.10;99.90;;;;;;5093114;28;20585;-69
2022/11/25 01:08:54;;;;;;;2.73;1.40;;;10.10;99.90;;;;;;5093204;28;20167;-69
2022/11/25 01:11:22;;;;;;;2.13;0.90;;;10.10;99.90;;;;;;5093133;28;20604;-69
2022/11/25 01:13:48;;;;;;;2.73;1.43;;;10.10;99.90;;;;;;5092999;28;20612;-69
2022/11/25 01:16:18;;;;;;;2.07;1.10;;;10.10;99.90;;;;;;5092729;28;20266;-69
2022/11/25 01:18:45;;;;;;;3.93;1.10;;;10.10;99.90;;;;;;5093027;28;20176;-69
2022/11/25 01:21:14;;;;;;;3.70;1.17;;;10.10;99.90;;;;;;5092942;28;20635;-68
2022/11/25 01:23:41;;;;;;;3.57;1.00;;;10.00;99.90;;;;;;5093109;28;20247;-69
2022/11/25 01:26:11;;;;;;;2.97;0.90;;;10.00;99.90;;;;;;5092967;28;20172;-68
2022/11/25 01:28:37;;;;;;;3.77;0.97;;;10.00;99.90;;;;;;5093125;28;20240;-69
2022/11/25 01:31:05;;;;;;;7.67;1.40;;;9.90;99.90;;;;;;5092487;28;20163;-68
2022/11/25 01:33:32;;;;;;;1.80;0.90;;;10.00;99.90;;;;;;5092746;28;20687;-69
2022/11/25 01:36:05;;;;;;;3.30;1.10;;;9.90;99.90;;;;;;5093070;28;20178;-69
2022/11/25 01:38:35;;;;;;;3.83;1.10;;;9.90;99.90;;;;;;5095377;28;20168;-69
2022/11/25 01:41:02;;;;;;;2.70;1.30;;;9.90;99.90;;;;;;5097599;28;20523;-69
2022/11/25 01:43:30;;;;;;;2.10;1.20;;;9.90;99.90;;;;;;5096745;28;20212;-68
2022/11/25 01:46:20;;;;;;;4.80;1.30;;;10.10;99.90;;;;;;5096526;28;20655;-69
2022/11/25 01:48:54;;;;;;;3.10;1.60;;;10.00;99.90;;;;;;5096866;28;20183;-68
2022/11/25 01:51:29;;;;;;;2.80;1.53;;;9.90;99.90;;;;;;5095345;28;20195;-70
2022/11/25 01:53:58;;;;;;;1.27;0.90;;;9.80;99.90;;;;;;5096567;28;20210;-68
2022/11/25 01:56:26;;;;;;;1.77;0.70;;;9.60;99.90;;;;;;5096447;28;20264;-69
2022/11/25 01:58:52;;;;;;;2.00;0.97;;;9.60;99.90;;;;;;5096626;28;20237;-69
2022/11/25 02:01:20;;;;;;;0.60;0.60;;;9.70;99.90;;;;;;5096173;28;20164;-68
2022/11/25 02:03:49;;;;;;;2.07;0.80;;;9.70;99.90;;;;;;5096501;28;20207;-68
2022/11/25 02:06:24;;;;;;;0.90;0.60;;;9.80;99.90;;;;;;5096301;28;20180;-69
2022/11/25 02:08:54;;;;;;;0.70;0.70;;;9.80;99.90;;;;;;5096545;28;20286;-69
2022/11/25 02:11:22;;;;;;;3.43;0.90;;;9.80;99.90;;;;;;5096309;28;20578;-69
2022/11/25 02:13:50;;;;;;;2.07;0.80;;;9.90;99.90;;;;;;5095941;28;20327;-68
2022/11/25 02:16:15;;;;;;;2.03;0.70;;;9.90;99.90;;;;;;5096294;28;20173;-69
2022/11/25 02:18:41;;;;;;;2.33;0.90;;;10.00;99.90;;;;;;5096035;28;20179;-69
2022/11/25 02:21:07;;;;;;;4.37;0.90;;;10.00;99.90;;;;;;5095970;28;20612;-69
2022/11/25 02:23:45;;;;;;;2.00;1.40;;;10.00;99.90;;;;;;5096212;28;20180;-68
2022/11/25 02:26:11;;;;;;;3.50;1.30;;;10.00;99.90;;;;;;5077767;28;20167;-69
2022/11/25 02:28:38;;;;;;;2.30;0.97;;;10.00;99.90;;;;;;5095719;28;20175;-68
2022/11/25 02:31:06;;;;;;;5.27;3.80;;;10.00;99.90;;;;;;5095813;28;20176;-69
2022/11/25 02:33:32;;;;;;;2.87;1.80;;;10.00;99.90;;;;;;5095382;28;20314;-69
2022/11/25 02:36:03;;;;;;;2.00;1.00;;;10.00;99.90;;;;;;5095869;28;20250;-68
2022/11/25 02:38:37;;;;;;;3.93;1.37;;;10.00;99.90;;;;;;5095867;28;20195;-69
2022/11/25 02:41:41;;;;;;;2.97;1.43;;;10.00;99.90;;;;;;5095696;28;20217;-69
2022/11/25 02:44:07;;;;;;;3.03;1.50;;;10.00;99.90;;;;;;5063899;28;20271;-69
2022/11/25 02:46:33;;;;;;;2.30;1.00;;;9.90;99.90;;;;;;5094385;28;20640;-69
2022/11/25 02:48:59;;;;;;;4.10;1.33;;;9.90;99.90;;;;;;5076345;28;20214;-69
2022/11/25 02:51:29;;;;;;;3.30;1.10;;;9.90;99.90;;;;;;5095415;28;20196;-68
2022/11/25 02:53:55;;;;;;;5.50;1.50;;;9.90;99.90;;;;;;5095399;28;20226;-69
2022/11/25 02:56:23;;;;;;;4.60;1.37;;;9.90;99.90;;;;;;5095434;28;20187;-69
2022/11/25 02:58:49;;;;;;;6.10;1.50;;;9.90;99.90;;;;;;5094992;28;20187;-70
2022/11/25 03:01:18;;;;;;;5.13;1.40;;;9.90;99.90;;;;;;5095300;28;20175;-69
2022/11/25 03:03:46;;;;;;;2.77;1.50;;;9.90;99.90;;;;;;5095260;28;20707;-69
2022/11/25 03:06:11;;;;;;;5.97;1.70;;;9.80;99.90;;;;;;5077084;28;20182;-68
2022/11/25 03:08:37;;;;;;;6.67;1.90;;;9.80;99.90;;;;;;5095418;28;20171;-68
2022/11/25 03:11:04;;;;;;;3.57;1.53;;;9.80;99.90;;;;;;5095057;28;20537;-69
2022/11/25 03:13:29;;;;;;;5.90;1.70;;;9.80;99.90;;;;;;5076584;28;20217;-69
2022/11/25 03:15:55;;;;;;;7.93;2.00;;;9.80;99.90;;;;;;5095259;28;20688;-69
2022/11/25 03:18:21;;;;;;;8.57;1.90;;;9.80;99.90;;;;;;5094953;28;20199;-70
2022/11/25 03:20:50;;;;;;;7.07;1.90;;;9.70;99.90;;;;;;5094906;28;20527;-68
2022/11/25 03:23:15;;;;;;;5.90;2.17;;;9.70;99.90;;;;;;5095013;28;20635;-68
2022/11/25 03:25:41;;;;;;;5.20;2.00;;;9.70;99.90;;;;;;5094936;28;20168;-68
2022/11/25 03:28:07;;;;;;;8.30;2.20;;;9.70;99.90;;;;;;5094459;28;20176;-68
2022/11/25 03:30:32;;;;;;;5.93;2.33;;;9.70;99.90;;;;;;5094654;28;20174;-69
2022/11/25 03:32:58;;;;;;;9.30;2.30;;;9.70;99.90;;;;;;5094483;28;20219;-69
2022/11/25 03:35:23;;;;;;;10.20;2.73;;;9.60;99.90;;;;;;5094817;28;20190;-69
2022/11/25 03:37:49;;;;;;;8.50;2.50;;;9.60;99.90;;;;;;5094751;28;20620;-69
2022/11/25 03:40:18;;;;;;;7.23;2.07;;;9.60;99.90;;;;;;5094450;28;20627;-69
2022/11/25 03:42:44;;;;;;;7.97;2.80;;;9.60;99.90;;;;;;5094143;28;20207;-68
2022/11/25 03:45:12;;;;;;;9.87;2.67;;;9.60;99.90;;;;;;5094520;28;20174;-68
2022/11/25 03:47:38;;;;;;;6.00;2.37;;;9.60;99.90;;;;;;5094437;28;20168;-69
2022/11/25 03:50:04;;;;;;;8.80;2.90;;;9.60;99.90;;;;;;5094227;28;20191;-69
2022/11/25 03:52:33;;;;;;;11.17;2.60;;;9.60;99.90;;;;;;5094261;28;20263;-68
2022/11/25 03:54:59;;;;;;;7.50;2.50;;;9.60;99.90;;;;;;5094246;28;20675;-69
2022/11/25 03:57:27;;;;;;;10.57;2.57;;;9.60;99.90;;;;;;5075288;28;20254;-68
2022/11/25 03:59:52;;;;;;;5.57;2.30;;;9.60;99.90;;;;;;5075227;28;20176;-69
2022/11/25 04:02:18;;;;;;;9.30;2.63;;;9.60;99.90;;;;;;5094190;28;20167;-70
2022/11/25 04:04:44;;;;;;;8.53;2.70;;;9.60;99.90;;;;;;5094289;28;20164;-69
2022/11/25 04:07:12;;;;;;;8.40;2.57;;;9.60;99.90;;;;;;5094017;28;20780;-70
2022/11/25 04:09:37;;;;;;;12.63;2.70;;;9.60;99.90;;;;;;5093925;28;20216;-70
2022/11/25 04:14:47;;;;;;;9.30;3.00;;;9.50;99.90;;;;;;5094287;28;20202;-71
2022/11/25 04:17:13;;;;;;;10.63;2.90;;;9.50;99.90;;;;;;5094038;28;20168;-69
2022/11/25 04:19:39;;;;;;;10.80;2.80;;;9.50;99.90;;;;;;5093751;28;20535;-70
2022/11/25 04:22:04;;;;;;;8.60;2.37;;;9.50;99.90;;;;;;5093278;28;20258;-69
2022/11/25 04:24:30;;;;;;;7.53;2.33;;;9.50;99.90;;;;;;5093361;28;20179;-69
2022/11/25 04:26:58;;;;;;;9.33;2.97;;;9.60;99.90;;;;;;5093770;28;20160;-70
2022/11/25 04:29:27;;;;;;;9.17;3.00;;;9.60;99.90;;;;;;5093678;28;20179;-69
2022/11/25 04:31:52;;;;;;;9.30;3.03;;;9.60;99.90;;;;;;5093289;28;20337;-70
2022/11/25 04:34:21;;;;;;;6.70;2.87;;;9.50;99.90;;;;;;5093139;28;20393;-69
2022/11/25 04:36:46;;;;;;;10.07;2.80;;;9.50;99.90;;;;;;5093532;28;20172;-69
2022/11/25 04:39:12;;;;;;;6.83;2.57;;;9.50;99.90;;;;;;5093127;28;20258;-68
2022/11/25 04:41:38;;;;;;;10.60;2.70;;;9.50;99.90;;;;;;5093195;28;20160;-69
2022/11/25 04:44:03;;;;;;;9.23;2.80;;;9.60;99.90;;;;;;5093471;28;20172;-69
2022/11/25 04:46:38;;;;;;;9.73;3.13;;;9.60;99.90;;;;;;5093259;28;20255;-69
2022/11/25 04:49:04;;;;;;;9.97;2.90;;;9.60;99.90;;;;;;5093330;28;20163;-69
2022/11/25 04:51:33;;;;;;;7.03;3.10;;;9.60;99.90;;;;;;5092641;28;20242;-69
2022/11/25 04:53:58;;;;;;;7.83;2.70;;;9.70;99.90;;;;;;5092638;28;20204;-69
2022/11/25 04:56:24;;;;;;;7.80;2.80;;;9.70;99.90;;;;;;5093398;28;20218;-70
2022/11/25 05:01:34;;;;;;;10.00;2.90;;;9.70;99.90;;;;;;5093147;28;20213;-69
2022/11/25 05:03:59;;;;;;;11.43;2.90;;;9.70;99.90;;;;;;5093265;28;20191;-69
2022/11/25 05:06:25;;;;;;;10.17;3.20;;;9.70;99.90;;;;;;5092922;28;20251;-70
2022/11/25 05:08:51;;;;;;;10.10;2.73;;;9.80;99.90;;;;;;5092382;28;20645;-70
2022/11/25 05:11:16;;;;;;;7.87;2.90;;;9.70;99.90;;;;;;5092537;28;20199;-69
2022/11/25 05:13:42;;;;;;;7.60;2.90;;;9.70;99.90;;;;;;5095565;28;20288;-70
2022/11/25 05:16:08;;;;;;;9.90;3.23;;;9.80;99.90;;;;;;5097022;28;20176;-69
2022/11/25 05:18:33;;;;;;;9.67;3.17;;;9.70;99.90;;;;;;5097296;28;20175;-70
2022/11/25 05:21:06;;;;;;;9.40;3.13;;;9.70;99.90;;;;;;5097220;28;20680;-70
2022/11/25 05:23:32;;;;;;;7.60;2.87;;;9.70;99.90;;;;;;5095238;28;20176;-69
2022/11/25 05:26:01;;;;;;;10.80;2.90;;;9.70;99.90;;;;;;5097080;28;20624;-70
2022/11/25 05:28:28;;;;;;;7.73;3.00;;;9.60;99.90;;;;;;5097084;28;20211;-69
2022/11/25 05:30:53;;;;;;;9.83;2.90;;;9.50;99.90;;;;;;5096513;28;20161;-69
2022/11/25 05:33:19;;;;;;;9.60;3.17;;;9.50;99.90;;;;;;5096410;28;20231;-70
2022/11/25 05:35:59;;;;;;;8.20;3.10;;;9.50;99.90;;;;;;5096690;28;20527;-69
2022/11/25 05:38:26;;;;;;;10.27;2.90;;;9.40;99.90;;;;;;5096371;28;20179;-70
2022/11/25 05:40:54;;;;;;;11.63;2.97;;;9.40;99.90;;;;;;5078057;28;20176;-70
2022/11/25 05:43:20;;;;;;;10.47;3.13;;;9.40;99.90;;;;;;5096173;28;20175;-70
2022/11/25 05:45:52;;;;;;;5.97;2.50;;;9.40;99.90;;;;;;5096406;28;20646;-71
2022/11/25 05:48:17;;;;;;;12.77;3.73;;;9.40;99.90;;;;;;5096370;28;20175;-70
2022/11/25 05:50:43;;;;;;;9.07;2.70;;;9.40;99.90;;;;;;5095549;28;20275;-70
2022/11/25 05:53:10;;;;;;;12.33;2.80;;;9.30;99.90;;;;;;5095184;28;20294;-69
2022/11/25 05:55:38;;;;;;;14.60;3.43;;;9.30;99.90;;;;;;5095868;28;20168;-70
2022/11/25 05:58:05;;;;;;;9.63;3.23;;;9.30;99.90;;;;;;5094717;28;20207;-70
2022/11/25 06:00:31;;;;;;;8.23;2.80;;;9.30;99.90;;;;;;5095614;28;20183;-70
2022/11/25 06:02:57;;;;;;;13.13;3.13;;;9.20;99.90;;;;;;5096210;28;20225;-71
2022/11/25 06:05:22;;;;;;;11.93;3.23;;;9.20;99.90;;;;;;5095791;28;20175;-70
2022/11/25 06:07:48;;;;;;;10.00;3.00;;;9.10;99.90;;;;;;5095311;28;20195;-70
2022/11/25 06:10:16;;;;;;;8.23;2.87;;;9.00;99.90;;;;;;5095176;28;20178;-69
2022/11/25 06:12:44;;;;;;;11.53;3.10;;;9.10;99.90;;;;;;5095388;28;20198;-69
2022/11/25 06:15:10;;;;;;;12.23;3.10;;;9.10;99.90;;;;;;5095539;28;20164;-70
2022/11/25 06:17:36;;;;;;;13.90;3.00;;;9.10;99.90;;;;;;5077216;28;20172;-70
2022/11/25 06:20:04;;;;;;;10.83;3.40;;;9.10;99.90;;;;;;5095628;28;20524;-70
2022/11/25 06:22:33;;;;;;;6.80;3.20;;;9.00;99.90;;;;;;5094904;28;20275;-70
2022/11/25 06:24:59;;;;;;;15.13;3.83;;;9.00;99.90;;;;;;5094495;28;20203;-70
2022/11/25 06:27:24;;;;;;;8.20;3.80;;;9.00;99.90;;;;;;5095220;28;20203;-70
2022/11/25 06:29:50;;;;;;;11.33;3.60;;;9.00;99.90;;;;;;5095141;28;20259;-70
2022/11/25 06:32:15;;;;;;;12.77;3.63;;;9.00;99.90;;;;;;5095046;28;20231;-71
2022/11/25 06:34:41;;;;;;;14.93;3.87;;;9.00;99.90;;;;;;5094664;28;20219;-70
2022/11/25 06:37:07;;;;;;;6.80;3.37;;;8.90;99.90;;;;;;5094208;28;20259;-70
2022/11/25 06:39:33;;;;;;;16.97;3.70;;;9.00;99.90;;;;;;5095227;28;20172;-70
2022/11/25 06:41:59;;;;;;;13.17;3.77;;;9.00;99.90;;;;;;5095073;28;20259;-70
2022/11/25 06:44:24;;;;;;;15.70;4.07;;;8.90;99.90;;;;;;5095237;28;20183;-70
2022/11/25 06:46:53;;;;;;;12.00;3.60;;;8.90;99.90;;;;;;5093806;28;20180;-71
2022/11/25 06:49:18;;;;;;;8.80;3.60;;;8.90;99.90;;;;;;5094297;28;20226;-70
2022/11/25 06:51:50;;;;;;;10.73;3.50;;;8.90;99.90;;;;;;5094468;28;20224;-70
2022/11/25 06:54:19;;;;;;;10.43;3.87;;;8.80;99.90;;;;;;5094245;28;20208;-70
2022/11/25 06:56:50;;;;;;;8.60;3.70;;;8.80;99.90;;;;;;5094323;28;20171;-71
2022/11/25 06:59:16;;;;;;;12.07;3.80;;;8.80;99.90;;;;;;5093882;28;20164;-71
2022/11/25 07:01:42;;;;;;;10.97;3.70;;;8.80;99.90;;;;;;5094094;28;20650;-70
2022/11/25 07:04:07;;;;;;;11.97;4.10;;;8.80;99.90;;;;;;5093527;28;20176;-70
2022/11/25 07:06:33;;;;;;;10.83;3.83;;;8.80;99.90;;;;;;5093406;28;20252;-71
2022/11/25 07:08:59;;;;;;;17.73;4.37;;;8.80;99.90;;;;;;5093902;28;20176;-70
2022/11/25 07:11:33;;;;;;;13.47;4.00;;;8.70;99.90;;;;;;5094033;28;20179;-70
2022/11/25 07:14:09;;;;;;;17.30;3.97;;;8.70;99.90;;;;;;5093866;28;20215;-69
2022/11/25 07:16:37;;;;;;;12.50;4.00;;;8.70;99.90;;;;;;5076223;28;20199;-69
2022/11/25 07:19:03;;;;;;;16.57;4.27;;;8.70;99.90;;;;;;5093234;28;20251;-70
2022/11/25 07:21:30;;;;;;;16.23;3.50;;;8.70;99.90;;;;;;5093878;28;20511;-69
2022/11/25 07:23:58;;;;;;;13.73;3.53;;;8.80;99.90;;;;;;5093634;28;20221;-69
2022/11/25 07:26:26;;;;;;;15.77;4.43;;;8.80;99.90;;;;;;5094209;28;20160;-70
2022/11/25 07:28:57;;;;;;;15.10;4.00;;;8.80;99.90;;;;;;5093739;28;20164;-70
2022/11/25 07:31:26;;;;;;;13.57;4.00;;;8.80;99.90;;;;;;5092917;28;20179;-69
2022/11/25 07:33:54;;;;;;;14.93;4.37;;;8.90;99.90;;;;;;5092438;28;20310;-70
2022/11/25 07:36:21;;;;;;;17.60;3.80;;;8.80;99.90;;;;;;5092761;28;20333;-70
2022/11/25 07:38:46;;;;;;;13.07;3.47;;;8.80;99.90;;;;;;5093845;28;20187;-69
2022/11/25 07:41:18;;;;;;;10.43;3.80;;;8.80;99.90;;;;;;5074002;28;20168;-70
2022/11/25 07:43:45;;;;;;;13.93;4.13;;;8.90;99.90;;;;;;5075164;28;20529;-70
2022/11/25 07:46:15;;;;;;;11.97;3.50;;;8.90;99.90;;;;;;5092898;28;20172;-70
2022/11/25 07:48:44;;;;;;;10.77;4.10;;;8.90;99.90;;;;;;5093105;28;20230;-69
2022/11/25 07:51:43;;;;;;;15.90;4.27;;;9.00;99.90;;;;;;5093378;28;20271;-69
2022/11/25 07:54:11;;;;;;;9.07;3.90;;;9.10;99.90;;;;;;5030515;28;20312;-69
2022/11/25 07:56:39;;;;;;;11.83;3.90;;;9.10;99.90;;;;;;5035817;28;20174;-69
2022/11/25 07:59:06;;;;;;;13.80;3.73;;;9.20;99.90;;;;;;5047740;28;20268;-69
2022/11/25 08:01:31;;;;;;;13.60;3.80;;;9.40;99.90;;;;;;5049692;28;20201;-70
2022/11/25 08:03:57;;;;;;;11.03;3.73;;;9.60;99.90;;;;;;5050349;28;20225;-69
2022/11/25 08:06:25;;;;;;;13.03;3.90;;;9.90;99.90;;;;;;5050780;28;20180;-71
2022/11/25 08:08:54;;;;;;;9.73;3.47;;;10.00;99.90;;;;;;5049951;28;20257;-70
2022/11/25 08:11:28;;;;;;;7.07;3.00;;;10.20;99.90;;;;;;5049701;28;20180;-70
2022/11/25 08:13:54;;;;;;;15.37;3.87;;;10.70;99.90;;;;;;5050388;28;20220;-71
2022/11/25 08:16:22;;;;;;;12.47;3.93;;;10.80;99.90;;;;;;5031165;28;20188;-69
2022/11/25 08:18:48;;;;;;;11.80;3.73;;;10.90;99.90;;;;;;5029735;28;20190;-70
2022/11/25 08:21:15;;;;;;;9.43;3.30;;;10.80;99.90;;;;;;5029280;28;20268;-70
2022/11/25 08:23:42;;;;;;;14.30;3.90;;;10.60;99.90;;;;;;5029466;28;20316;-70
2022/11/25 08:26:16;;;;;;;12.30;4.20;;;10.60;99.90;;;;;;5030255;28;20186;-71
2022/11/25 08:28:46;;;;;;;12.23;3.67;;;10.50;99.90;;;;;;5030362;28;20271;-70
2022/11/25 08:31:15;;;;;;;11.80;4.27;;;10.30;99.90;;;;;;5070852;28;20180;-71
2022/11/25 08:33:42;;;;;;;12.97;4.00;;;10.40;99.90;;;;;;5072323;28;20231;-70
2022/11/25 08:36:08;;;;;;;13.70;4.30;;;10.70;99.90;;;;;;5072413;28;20164;-71
2022/11/25 08:38:34;;;;;;;19.27;4.30;;;11.00;99.90;;;;;;5071233;28;20647;-70
2022/11/25 08:41:00;;;;;;;10.33;3.67;;;11.50;99.90;;;;;;5072211;28;20194;-71
2022/11/25 08:43:26;;;;;;;8.17;3.63;;;12.30;99.90;;;;;;5072793;28;20264;-72
2022/11/25 08:45:54;;;;;;;10.67;3.90;;;13.00;99.90;;;;;;5072055;28;20164;-72
2022/11/25 08:48:20;;;;;;;9.47;3.87;;;13.70;99.90;;;;;;5071360;28;20226;-71
2022/11/25 08:50:52;;;;;;;11.50;4.20;;;13.80;99.90;;;;;;5072262;28;20660;-72
2022/11/25 08:53:18;;;;;;;8.00;3.30;;;13.60;99.90;;;;;;5072126;28;20202;-70
2022/11/25 08:55:44;;;;;;;14.80;3.87;;;13.20;99.90;;;;;;5071728;28;20195;-71
2022/11/25 08:58:11;;;;;;;10.27;4.20;;;12.60;99.90;;;;;;5070218;28;20176;-69
2022/11/25 09:00:42;;;;;;;11.93;4.30;;;12.30;99.90;;;;;;5072346;28;20164;-70
2022/11/25 09:03:09;;;;;;;12.20;3.87;;;11.80;99.90;;;;;;5072273;28;20157;-71
2022/11/25 09:05:40;;;;;;;10.53;4.23;;;11.40;99.90;;;;;;5069837;28;20179;-70
2022/11/25 09:08:07;;;;;;;10.37;3.27;;;11.20;99.90;;;;;;5072202;28;20211;-70
2022/11/25 09:10:33;;;;;;;14.43;3.87;;;10.90;99.90;;;;;;5072430;28;20632;-71
2022/11/25 09:12:59;;;;;;;12.20;3.40;;;10.70;99.90;;;;;;5071804;28;20196;-71
2022/11/25 09:15:27;;;;;;;11.30;3.77;;;10.80;99.90;;;;;;5071362;28;20169;-70
2022/11/25 09:18:07;;;;;;;12.10;3.50;;;11.10;99.90;;;;;;5072242;28;20203;-72
2022/11/25 09:20:36;;;;;;;6.70;3.13;;;11.30;99.90;;;;;;5071851;28;20180;-71
2022/11/25 09:23:02;;;;;;;9.37;3.53;;;11.40;99.90;;;;;;5072064;28;20183;-71
2022/11/25 09:25:48;;;;;;;9.97;3.93;;;11.60;99.90;;;;;;5070390;28;20168;-70
2022/11/25 09:28:13;;;;;;;9.27;2.93;;;11.50;99.90;;;;;;5071290;28;20184;-70
2022/11/25 09:30:39;;;;;;;7.53;2.70;;;11.50;99.90;;;;;;5071802;28;20529;-71
2022/11/25 09:33:04;;;;;;;5.27;2.97;;;11.70;99.90;;;;;;5087451;28;20224;-71
2022/11/25 09:35:30;;;;;;;7.90;3.10;;;11.70;99.90;;;;;;5091896;28;20663;-70
2022/11/25 09:37:59;;;;;;;10.07;3.07;;;12.00;99.90;;;;;;5091800;28;20235;-69
2022/11/25 09:40:44;;;;;;;7.33;2.90;;;12.50;99.90;;;;;;5092415;28;20297;-70
2022/11/25 09:49:27;;;;;;;8.57;3.13;;;13.60;99.90;;;;;;5092205;28;20233;-71
2022/11/25 09:52:13;;;;;;;9.53;2.87;;;14.10;99.90;;;;;;5092152;28;20247;-70
2022/11/25 09:54:48;;;;;;;4.47;2.58;;;15.40;99.90;;;;;;5073719;28;20212;-71
2022/11/25 09:57:28;;;;;;;5.00;2.60;;;16.40;99.90;;;;;;5091130;28;20173;-71
2022/11/25 10:00:06;;;;;;;6.50;3.03;;;17.00;99.90;;;;;;5094432;28;20168;-72
2022/11/25 10:02:49;;;;;;;8.60;3.63;;;16.20;99.90;;;;;;5095521;28;20535;-70
2022/11/25 10:05:32;;;;;;;8.88;3.85;;;15.70;99.90;;;;;;5095257;28;20171;-70
2022/11/25 10:08:24;;;;;;;8.40;3.28;;;15.80;99.90;;;;;;5077640;28;20195;-70
2022/11/25 10:11:00;;;;;;;9.35;3.35;;;15.10;99.90;;;;;;5083390;28;20199;-70
2022/11/25 10:13:43;;;;;;;7.45;3.13;;;15.30;99.90;;;;;;5094893;28;20204;-68
2022/11/25 10:16:27;;;;;;;5.88;2.90;;;15.00;99.90;;;;;;5095918;28;20175;-70
2022/11/25 10:19:05;;;;;;;6.43;2.70;;;15.10;99.90;;;;;;5095323;28;20534;-70
2022/11/25 10:21:30;;;;;;;6.53;3.13;;;15.30;99.90;;;;;;5095569;28;20254;-70
2022/11/25 10:23:56;;;;;;;5.85;2.75;;;15.50;99.90;;;;;;5095028;28;20392;-70
2022/11/25 10:26:30;;;;;;;5.82;2.85;;;15.50;99.90;;;;;;5094413;28;20586;-71
2022/11/25 10:29:23;;;;;;;7.45;2.75;;;15.90;99.90;;;;;;5095206;28;20160;-69
2022/11/25 10:31:52;;;;;;;6.07;2.60;;;16.20;99.90;;;;;;5094344;28;20223;-71
2022/11/25 10:34:37;;;;;;;5.00;2.83;;;16.80;99.90;;;;;;5095209;28;20210;-71
2022/11/25 10:37:10;;;;;;;5.20;2.85;;;17.30;99.90;;;;;;5094932;28;20187;-72
2022/11/25 10:39:36;;;;;;;3.88;2.60;;;17.70;99.90;;;;;;5094955;28;20168;-72
2022/11/25 10:42:06;;;;;;;5.07;2.97;;;17.70;99.90;;;;;;5095190;28;20516;-71
2022/11/25 10:44:37;;;;;;;3.47;2.55;;;17.30;99.90;;;;;;5094894;28;20257;-71
2022/11/25 10:47:14;;;;;;;5.28;2.33;;;17.30;99.90;;;;;;5095210;28;20607;-71
2022/11/25 10:50:21;;;;;;;5.95;2.50;;;16.70;99.90;;;;;;5094423;28;20260;-71
2022/11/25 10:53:08;;;;;;;6.97;2.70;;;16.50;99.90;;;;;;5094607;28;20220;-70
2022/11/25 10:55:34;;;;;;;7.05;2.75;;;16.30;99.90;;;;;;5076320;28;20194;-70
2022/11/25 10:58:31;;;;;;;6.38;2.65;;;15.90;99.90;;;;;;5075893;28;20631;-71
2022/11/25 11:01:22;;;;;;;4.78;2.53;;;16.20;99.90;;;;;;5094428;28;20247;-71
2022/11/25 11:04:09;;;;;;;11.18;3.50;;;16.60;99.90;;;;;;5094999;28;20200;-71
2022/11/25 11:06:38;;;;;;;7.60;2.65;;;16.70;99.90;;;;;;5094151;28;20172;-71
2022/11/25 11:09:24;;;;;;;6.00;2.97;;;16.80;99.90;;;;;;5093208;28;20522;-71
2022/11/25 11:11:49;;;;;;;5.25;2.83;;;17.10;99.90;;;;;;5092116;28;20293;-72
2022/11/25 11:14:19;;;;;;;7.82;2.75;;;16.80;99.90;;;;;;5094400;28;20211;-70
2022/11/25 11:16:54;;;;;;;6.75;2.92;;;17.20;99.90;;;;;;5094347;28;20179;-71
2022/11/25 11:19:27;;;;;;;6.60;2.90;;;16.80;99.90;;;;;;5093628;28;20635;-71
2022/11/25 11:21:56;;;;;;;9.10;3.50;;;16.90;99.90;;;;;;5093733;28;20168;-70
2022/11/25 11:24:34;;;;;;;8.35;3.63;;;16.80;99.90;;;;;;5094528;28;20172;-71
2022/11/25 11:27:08;;;;;;;9.98;3.42;;;17.10;99.90;;;;;;5093537;28;20171;-70
2022/11/25 11:29:33;;;;;;;5.45;3.03;;;17.20;99.90;;;;;;5093815;28;20225;-71
2022/11/25 11:32:07;;;;;;;7.43;3.30;;;17.30;99.90;;;;;;5093427;28;20678;-72
2022/11/25 11:34:38;;;;;;;8.27;2.80;;;17.90;99.90;;;;;;5094164;28;20214;-71
2022/11/25 11:37:19;;;;;;;6.60;3.10;;;17.30;99.90;;;;;;5093596;28;20164;-71
2022/11/25 11:39:58;;;;;;;7.63;3.20;;;16.90;99.90;;;;;;5093871;28;20601;-72
2022/11/25 11:43:01;;;;;;;9.38;3.50;;;16.90;99.90;;;;;;5094033;28;20175;-71
2022/11/25 11:45:44;;;;;;;6.95;3.28;;;16.60;99.90;;;;;;5093861;28;20175;-71
2022/11/25 11:48:28;;;;;;;8.85;3.67;;;16.40;99.90;;;;;;5093992;28;20195;-71
2022/11/25 11:51:28;;;;;;;7.90;3.38;;;16.30;99.90;;;;;;5092982;28;20647;-70
2022/11/25 11:54:11;;;;;;;9.05;3.10;;;16.40;99.90;;;;;;5092992;28;20203;-70
2022/11/25 11:57:13;;;;;;;6.88;3.17;;;16.50;99.90;;;;;;5093753;28;20164;-69
2022/11/25 11:59:48;;;;;;;5.43;3.10;;;16.00;99.90;;;;;;5053774;28;20175;-71
2022/11/25 12:02:27;;;;;;;10.15;3.75;;;16.30;99.90;;;;;;5092858;28;20198;-71
2022/11/25 12:05:10;;;;;;;8.15;3.10;;;16.40;99.90;;;;;;5074844;28;20570;-70
2022/11/25 12:07:53;;;;;;;9.65;3.33;;;16.20;99.90;;;;;;5093141;28;20263;-69
2022/11/25 12:10:27;;;;;;;7.88;3.03;;;16.00;99.90;;;;;;5093103;28;20651;-71
2022/11/25 12:13:12;;;;;;;7.70;3.03;;;15.50;99.90;;;;;;5092654;28;20654;-71
2022/11/25 12:15:54;;;;;;;8.27;2.90;;;14.90;99.90;;;;;;5074240;28;20189;-71
2022/11/25 12:18:27;;;;;;;9.73;3.22;;;15.30;99.90;;;;;;5093276;28;20168;-70
2022/11/25 12:21:09;;;;;;;11.40;3.45;;;14.70;99.90;;;;;;5093168;28;20168;-72
2022/11/25 12:24:03;;;;;;;10.23;3.58;;;15.00;99.90;;;;;;5074868;28;20248;-73
2022/11/25 12:27:04;;;;;;;9.97;3.53;;;14.60;99.90;;;;;;5093084;28;20187;-71
2022/11/25 12:29:38;;;;;;;7.60;3.43;;;14.50;99.90;;;;;;5091658;28;20305;-71
2022/11/25 12:32:28;;;;;;;11.87;3.40;;;13.60;99.90;;;;;;5092662;28;20256;-71
2022/11/25 12:35:02;;;;;;;13.80;3.77;;;13.40;99.90;;;;;;5092620;28;20208;-73
2022/11/25 12:37:42;;;;;;;11.37;3.50;;;13.30;99.90;;;;;;5092602;28;20198;-70
2022/11/25 12:40:18;;;;;;;10.77;3.47;;;13.30;99.90;;;;;;5092832;28;20172;-72
2022/11/25 12:42:46;;;;;;;8.53;3.50;;;13.40;99.90;;;;;;5092615;28;20529;-72
2022/11/25 12:45:33;;;;;;;11.77;3.60;;;13.50;99.90;;;;;;5092605;28;20216;-71
2022/11/25 12:47:59;;;;;;;11.17;3.50;;;13.20;99.90;;;;;;5072807;28;20486;-71
2022/11/25 12:51:03;;;;;;;11.47;4.30;;;13.00;99.90;;;;;;5092323;28;20184;-70
2022/11/25 12:53:50;;;;;;;15.70;4.23;;;12.90;99.90;;;;;;4989981;28;20219;-70
2022/11/25 12:56:26;;;;;;;13.10;3.60;;;12.80;99.90;;;;;;4990607;28;20266;-71
2022/11/25 12:59:27;;;;;;;12.73;3.53;;;12.70;99.90;;;;;;4974209;28;20187;-71
2022/11/25 13:02:04;;;;;;;12.50;3.83;;;12.80;99.90;;;;;;4991047;28;20175;-71
2022/11/25 13:05:07;;;;;;;15.87;4.13;;;12.80;99.90;;;;;;4990281;28;20677;-71
2022/11/25 13:07:42;;;;;;;16.27;3.60;;;12.90;99.90;;;;;;4989847;28;20178;-71
2022/11/25 13:10:30;;;;;;;15.17;4.00;;;12.90;99.90;;;;;;4990145;28;20671;-71
2022/11/25 13:13:22;;;;;;;14.37;4.40;;;13.10;99.90;;;;;;4973861;28;20344;-71
2022/11/25 13:15:50;;;;;;;15.67;4.10;;;13.20;99.90;;;;;;4990497;28;20656;-70
2022/11/25 13:18:25;;;;;;;9.30;4.13;;;13.30;99.90;;;;;;4990874;28;20232;-71
2022/11/25 13:20:54;;;;;;;14.23;4.00;;;13.40;99.90;;;;;;4973858;28;20197;-69
2022/11/25 13:23:48;;;;;;;12.37;3.93;;;13.30;99.90;;;;;;4990302;28;20183;-71
2022/11/25 13:26:33;;;;;;;15.37;4.10;;;13.30;99.90;;;;;;4990119;28;20183;-71